Time;durP1;ratioP1;P1;durP2;ratioP2;P2;SDS_P1;SDS_P2;PMS_P1;PMS_P2;Temp;Humidity;BMP_temperature;BMP_pressure;BME280_temperature;BME280_humidity;BME280_pressure;Samples;Min_cycle;Max_cycle;Signal;HPM_P1;HPM_P2
2021/05/24 00:00:12;;;;;;;;;;;;;;;23.52;61.51;100589.53;1752529;80;20421;-53
2021/05/24 00:02:41;;;;;;;;;;;;;;;23.49;61.49;100584.67;1752464;80;20272;-54
2021/05/24 00:05:10;;;;;;;;;;;;;;;23.46;61.45;100584.78;1755696;80;21066;-53
2021/05/24 00:07:36;;;;;;;;;;;;;;;23.43;61.47;100582.67;1750039;80;20223;-52
2021/05/24 00:10:04;;;;;;;;;;;;;;;23.39;61.46;100583.09;1752763;80;20304;-53
2021/05/24 00:12:30;;;;;;;;;;;;;;;23.36;61.46;100595.46;1750845;80;20298;-54
2021/05/24 00:14:56;;;;;;;;;;;;;;;23.33;61.49;100605.30;1750732;80;20247;-56
2021/05/24 00:17:22;;;;;;;;;;;;;;;23.30;61.52;100605.17;1752573;80;21042;-54
2021/05/24 00:19:48;;;;;;;;;;;;;;;23.26;61.55;100613.34;1749945;80;20374;-55
2021/05/24 00:22:14;;;;;;;;;;;;;;;23.23;61.58;100616.80;1752336;80;20294;-53
2021/05/24 00:24:40;;;;;;;;;;;;;;;23.19;61.62;100618.06;1752523;81;20209;-55
2021/05/24 00:27:06;;;;;;;;;;;;;;;23.16;61.65;100625.69;1731130;81;20242;-53
2021/05/24 00:29:33;;;;;;;;;;;;;;;23.14;61.68;100634.10;1714658;82;21094;-54
2021/05/24 00:31:59;;;;;;;;;;;;;;;23.11;61.72;100634.79;1749377;80;20547;-55
2021/05/24 00:34:25;;;;;;;;;;;;;;;23.09;61.74;100632.91;1716676;82;20283;-54
2021/05/24 00:36:52;;;;;;;;;;;;;;;23.07;61.77;100639.39;1753044;81;21930;-55
2021/05/24 00:39:18;;;;;;;;;;;;;;;23.05;61.82;100636.13;1747515;81;20235;-54
2021/05/24 00:41:44;;;;;;;;;;;;;;;23.02;61.84;100631.27;1748822;81;21140;-54
2021/05/24 00:44:10;;;;;;;;;;;;;;;23.00;61.89;100634.37;1708123;82;20256;-55
2021/05/24 00:46:36;;;;;;;;;;;;;;;22.98;61.91;100628.36;1714575;82;20270;-54
2021/05/24 00:49:03;;;;;;;;;;;;;;;22.97;61.93;100620.36;1760318;81;20532;-54
2021/05/24 00:51:29;;;;;;;;;;;;;;;22.95;61.96;100617.13;1760732;81;20585;-55
2021/05/24 00:53:56;;;;;;;;;;;;;;;22.99;61.96;100622.23;1755520;81;20989;-55
2021/05/24 00:56:23;;;;;;;;;;;;;;;22.99;62.00;100618.89;1690340;83;20157;-54
2021/05/24 00:58:49;;;;;;;;;;;;;;;23.01;62.04;100619.92;1725723;81;20258;-54
2021/05/24 01:01:15;;;;;;;;;;;;;;;23.04;62.12;100626.20;1732003;81;20292;-54
2021/05/24 01:03:42;;;;;;;;;;;;;;;23.07;62.16;100629.11;1698724;83;20297;-54
2021/05/24 01:06:07;;;;;;;;;;;;;;;23.11;62.20;100615.36;1721691;81;20924;-54
2021/05/24 01:08:33;;;;;;;;;;;;;;;23.16;62.22;100626.27;1705050;83;20284;-54
2021/05/24 01:10:59;;;;;;;;;;;;;;;23.20;62.21;100629.98;1734209;82;20268;-54
2021/05/24 01:13:25;;;;;;;;;;;;;;;23.25;62.21;100630.36;1734713;82;20613;-54
2021/05/24 01:15:51;;;;;;;;;;;;;;;23.30;62.19;100640.66;1732734;82;20234;-52
2021/05/24 01:18:17;;;;;;;;;;;;;;;23.34;62.16;100640.20;1734298;82;21226;-54
2021/05/24 01:20:43;;;;;;;;;;;;;;;23.36;62.13;100644.86;1699524;83;21658;-54
2021/05/24 01:23:11;;;;;;;;;;;;;;;23.38;62.06;100641.16;1736054;81;20197;-53
2021/05/24 01:25:42;;;;;;;;;;;;;;;23.39;62.00;100641.97;1734608;81;20285;-54
2021/05/24 01:28:09;;;;;;;;;;;;;;;23.39;61.95;100646.95;1733936;81;20264;-54
2021/05/24 01:30:35;;;;;;;;;;;;;;;23.37;61.87;100655.39;1742063;81;21078;-54
2021/05/24 01:33:01;;;;;;;;;;;;;;;23.36;61.82;100667.64;1741038;81;20486;-55
2021/05/24 01:35:27;;;;;;;;;;;;;;;23.34;61.78;100677.69;1741097;81;20245;-53
2021/05/24 01:37:53;;;;;;;;;;;;;;;23.31;61.75;100682.54;1737549;81;20230;-55
2021/05/24 01:40:20;;;;;;;;;;;;;;;23.28;61.72;100697.11;1740026;81;20204;-56
2021/05/24 01:42:46;;;;;;;;;;;;;;;23.25;61.70;100698.36;1743375;81;21131;-56
2021/05/24 01:45:14;;;;;;;;;;;;;;;23.21;61.72;100706.55;1740010;81;21586;-54
2021/05/24 01:47:43;;;;;;;;;;;;;;;23.18;61.73;100708.02;1742921;81;20490;-54
2021/05/24 01:50:10;;;;;;;;;;;;;;;23.14;61.72;100713.20;1734320;81;20506;-55
2021/05/24 01:52:36;;;;;;;;;;;;;;;23.13;61.76;100708.79;1734681;81;20604;-55
2021/05/24 01:55:02;;;;;;;;;;;;;;;23.09;61.78;100711.43;1751628;80;20890;-55
2021/05/24 01:57:28;;;;;;;;;;;;;;;23.07;61.77;100714.31;1765761;79;20237;-54
2021/05/24 01:59:55;;;;;;;;;;;;;;;23.04;61.82;100717.77;1769958;79;20214;-55
2021/05/24 02:02:21;;;;;;;;;;;;;;;23.01;61.82;100718.42;1771275;80;20223;-54
2021/05/24 02:04:47;;;;;;;;;;;;;;;22.98;61.85;100724.08;1774390;79;20576;-54
2021/05/24 02:07:13;;;;;;;;;;;;;;;22.96;61.89;100722.77;1771283;79;20711;-55
2021/05/24 02:09:39;;;;;;;;;;;;;;;22.94;61.91;100736.19;1734254;80;20220;-55
2021/05/24 02:12:06;;;;;;;;;;;;;;;22.91;61.94;100745.19;1770392;79;20207;-55
2021/05/24 02:14:32;;;;;;;;;;;;;;;22.90;61.96;100755.47;1770097;80;20229;-55
2021/05/24 02:16:58;;;;;;;;;;;;;;;22.87;61.99;100758.09;1771998;79;20206;-55
2021/05/24 02:19:24;;;;;;;;;;;;;;;22.86;62.02;100760.62;1773044;79;21069;-57
2021/05/24 02:21:50;;;;;;;;;;;;;;;22.83;62.04;100771.80;1770331;79;21083;-53
2021/05/24 02:24:16;;;;;;;;;;;;;;;22.83;62.07;100779.33;1756583;80;20267;-55
2021/05/24 02:26:43;;;;;;;;;;;;;;;22.81;62.09;100783.81;1725313;82;20175;-55
2021/05/24 02:29:09;;;;;;;;;;;;;;;22.80;62.12;100784.14;1749456;80;20243;-55
2021/05/24 02:31:35;;;;;;;;;;;;;;;22.80;62.13;100789.69;1749519;81;21046;-55
2021/05/24 02:34:03;;;;;;;;;;;;;;;22.80;62.14;100768.87;1747775;81;20320;-55
2021/05/24 02:36:29;;;;;;;;;;;;;;;22.82;62.17;100777.70;1746649;81;20254;-55
2021/05/24 02:38:55;;;;;;;;;;;;;;;22.83;62.21;100782.89;1776879;79;21894;-55
2021/05/24 02:41:21;;;;;;;;;;;;;;;22.85;62.27;100786.73;1765417;80;20747;-56
2021/05/24 02:43:47;;;;;;;;;;;;;;;22.89;62.32;100787.69;1777048;79;21871;-56
2021/05/24 02:46:13;;;;;;;;;;;;;;;22.92;62.35;100780.89;1777142;79;20291;-55
2021/05/24 02:48:38;;;;;;;;;;;;;;;22.97;62.37;100773.78;1774411;79;20171;-55
2021/05/24 02:51:05;;;;;;;;;;;;;;;23.01;62.37;100776.69;1767021;80;20258;-55
2021/05/24 02:53:31;;;;;;;;;;;;;;;23.07;62.38;100785.08;1773741;79;20511;-54
2021/05/24 02:55:57;;;;;;;;;;;;;;;23.11;62.34;100779.09;1750946;80;21145;-54
2021/05/24 02:58:23;;;;;;;;;;;;;;;23.14;62.31;100786.74;1740464;81;20267;-55
2021/05/24 03:00:49;;;;;;;;;;;;;;;23.17;62.29;100789.66;1740402;81;20244;-55
2021/05/24 03:03:15;;;;;;;;;;;;;;;23.21;62.23;100804.48;1745679;81;20204;-55
2021/05/24 03:05:41;;;;;;;;;;;;;;;23.23;62.16;100800.00;1740925;81;20285;-55
2021/05/24 03:08:07;;;;;;;;;;;;;;;23.22;62.08;100800.57;1738501;81;21130;-55
2021/05/24 03:10:33;;;;;;;;;;;;;;;23.22;61.98;100799.75;1740816;81;20260;-55
2021/05/24 03:12:58;;;;;;;;;;;;;;;23.20;61.92;100802.06;1735359;81;20363;-54
2021/05/24 03:15:25;;;;;;;;;;;;;;;23.17;61.87;100796.59;1738771;81;20255;-56
2021/05/24 03:17:51;;;;;;;;;;;;;;;23.15;61.83;100793.92;1738608;81;20558;-54
2021/05/24 03:20:17;;;;;;;;;;;;;;;23.12;61.83;100789.05;1739603;81;20301;-55
2021/05/24 03:22:44;;;;;;;;;;;;;;;23.09;61.81;100792.48;1742474;81;20277;-53
2021/05/24 03:25:11;;;;;;;;;;;;;;;23.05;61.81;100789.56;1743767;81;20249;-55
2021/05/24 03:27:37;;;;;;;;;;;;;;;23.03;61.80;100804.94;1726171;81;20208;-55
2021/05/24 03:30:06;;;;;;;;;;;;;;;23.00;61.81;100811.16;1707895;82;20271;-55
2021/05/24 03:32:33;;;;;;;;;;;;;;;22.97;61.82;100813.19;1712214;82;21044;-55
2021/05/24 03:34:58;;;;;;;;;;;;;;;22.94;61.83;100815.25;1711544;82;20643;-55
2021/05/24 03:37:24;;;;;;;;;;;;;;;22.91;61.82;100820.09;1702969;82;20212;-54
2021/05/24 03:39:50;;;;;;;;;;;;;;;22.89;61.84;100826.53;1708122;82;20199;-55
2021/05/24 03:42:16;;;;;;;;;;;;;;;22.87;61.85;100841.32;1704750;82;20247;-54
2021/05/24 03:44:44;;;;;;;;;;;;;;;22.84;61.87;100842.78;1733075;81;21066;-56
2021/05/24 03:47:11;;;;;;;;;;;;;;;22.82;61.89;100842.89;1733572;81;20281;-54
2021/05/24 03:49:37;;;;;;;;;;;;;;;22.79;61.92;100842.95;1712459;82;20240;-55
2021/05/24 03:52:04;;;;;;;;;;;;;;;22.76;61.93;100840.28;1704469;82;21170;-54
2021/05/24 03:54:29;;;;;;;;;;;;;;;22.76;61.95;100839.47;1718931;81;20291;-55
2021/05/24 03:56:55;;;;;;;;;;;;;;;22.73;61.97;100847.89;1734781;81;21322;-58
2021/05/24 03:59:21;;;;;;;;;;;;;;;22.72;61.98;100853.19;1747217;80;20320;-58
2021/05/24 04:01:49;;;;;;;;;;;;;;;22.69;62.01;100860.80;1764080;79;20467;-58
2021/05/24 04:04:15;;;;;;;;;;;;;;;22.67;62.05;100867.20;1760544;80;20266;-58
2021/05/24 04:06:43;;;;;;;;;;;;;;;22.66;62.07;100866.95;1761009;80;20263;-58
2021/05/24 04:09:09;;;;;;;;;;;;;;;22.65;62.10;100876.43;1763000;79;21217;-58
2021/05/24 04:11:35;;;;;;;;;;;;;;;22.65;62.12;100872.84;1760862;79;20286;-58
2021/05/24 04:14:01;;;;;;;;;;;;;;;22.64;62.17;100878.14;1764217;79;20293;-59
2021/05/24 04:16:27;;;;;;;;;;;;;;;22.63;62.18;100883.44;1762221;79;20206;-59
2021/05/24 04:18:52;;;;;;;;;;;;;;;22.65;62.19;100890.87;1762923;79;20226;-59
2021/05/24 04:21:19;;;;;;;;;;;;;;;22.66;62.22;100892.50;1763563;79;21119;-57
2021/05/24 04:23:45;;;;;;;;;;;;;;;22.69;62.25;100891.87;1757176;79;20491;-58
2021/05/24 04:26:12;;;;;;;;;;;;;;;22.71;62.27;100901.48;1756296;79;20230;-58
2021/05/24 04:28:37;;;;;;;;;;;;;;;22.75;62.35;100909.38;1756389;79;20261;-58
2021/05/24 04:31:04;;;;;;;;;;;;;;;22.78;62.38;100900.98;1759189;79;20700;-58
2021/05/24 04:33:30;;;;;;;;;;;;;;;22.82;62.42;100911.66;1754193;80;21760;-58
2021/05/24 04:35:57;;;;;;;;;;;;;;;22.86;62.41;100926.50;1760884;79;20224;-58
2021/05/24 04:38:24;;;;;;;;;;;;;;;22.90;62.42;100927.47;1721192;82;20672;-58
2021/05/24 04:40:50;;;;;;;;;;;;;;;22.94;62.37;100933.17;1749219;80;20297;-58
2021/05/24 04:43:16;;;;;;;;;;;;;;;22.97;62.37;100931.11;1756643;79;20265;-56
2021/05/24 04:45:42;;;;;;;;;;;;;;;23.01;62.34;100938.45;1754380;79;21049;-55
2021/05/24 04:48:08;;;;;;;;;;;;;;;23.03;62.33;100943.11;1748663;79;20197;-56
2021/05/24 04:50:34;;;;;;;;;;;;;;;23.05;62.27;100948.31;1765221;79;20281;-56
2021/05/24 04:53:00;;;;;;;;;;;;;;;23.06;62.26;100959.66;1761270;79;20744;-57
2021/05/24 04:55:26;;;;;;;;;;;;;;;23.07;62.22;100976.56;1761557;79;20574;-57
2021/05/24 04:57:52;;;;;;;;;;;;;;;23.08;62.16;100989.30;1701355;82;21292;-60
2021/05/24 05:00:19;;;;;;;;;;;;;;;23.07;62.11;100991.82;1740429;81;20231;-56
2021/05/24 05:02:45;;;;;;;;;;;;;;;23.06;62.09;100999.90;1743663;81;20294;-56
2021/05/24 05:05:12;;;;;;;;;;;;;;;23.06;62.06;101003.48;1742755;81;20992;-56
2021/05/24 05:07:38;;;;;;;;;;;;;;;23.04;62.05;101006.36;1741212;81;20546;-56
2021/05/24 05:10:05;;;;;;;;;;;;;;;23.03;62.03;101024.97;1755336;81;21838;-54
2021/05/24 05:12:31;;;;;;;;;;;;;;;23.01;62.01;101027.24;1750302;81;20281;-56
2021/05/24 05:14:58;;;;;;;;;;;;;;;23.00;62.01;101039.48;1754418;81;20553;-57
2021/05/24 05:17:25;;;;;;;;;;;;;;;22.98;62.02;101045.95;1753500;81;20375;-56
2021/05/24 05:19:51;;;;;;;;;;;;;;;22.97;62.00;101054.59;1757740;81;20268;-57
2021/05/24 05:22:19;;;;;;;;;;;;;;;22.95;62.04;101072.15;1753991;80;21053;-54
2021/05/24 05:24:45;;;;;;;;;;;;;;;22.95;62.05;101080.48;1715386;82;20527;-54
2021/05/24 05:27:11;;;;;;;;;;;;;;;22.94;62.06;101097.69;1758964;81;20214;-55
2021/05/24 05:29:37;;;;;;;;;;;;;;;22.92;62.07;101093.02;1756416;81;20259;-56
2021/05/24 05:32:03;;;;;;;;;;;;;;;22.90;62.09;101097.28;1758020;81;20197;-56
2021/05/24 05:34:29;;;;;;;;;;;;;;;22.89;62.11;101114.49;1755840;81;21854;-54
2021/05/24 05:36:55;;;;;;;;;;;;;;;22.88;62.12;101127.30;1760874;81;20240;-56
2021/05/24 05:39:21;;;;;;;;;;;;;;;22.88;62.16;101129.50;1757628;81;20208;-55
2021/05/24 05:41:46;;;;;;;;;;;;;;;22.88;62.18;101141.16;1758245;81;20686;-55
2021/05/24 05:44:12;;;;;;;;;;;;;;;22.87;62.19;101145.11;1760383;81;20205;-55
2021/05/24 05:46:38;;;;;;;;;;;;;;;22.86;62.19;101147.62;1754727;81;21108;-56
2021/05/24 05:49:04;;;;;;;;;;;;;;;22.85;62.20;101140.44;1757870;81;20173;-56
2021/05/24 05:51:30;;;;;;;;;;;;;;;22.85;62.21;101145.98;1761612;81;20757;-57
2021/05/24 05:53:56;;;;;;;;;;;;;;;22.83;62.23;101154.63;1757650;81;21134;-55
2021/05/24 05:56:23;;;;;;;;;;;;;;;22.84;62.26;101160.98;1753435;80;20239;-55
2021/05/24 05:58:49;;;;;;;;;;;;;;;22.83;62.24;101170.48;1745263;80;21162;-54
2021/05/24 06:01:15;;;;;;;;;;;;;;;22.82;62.24;101171.05;1745451;80;21596;-54
2021/05/24 06:03:41;;;;;;;;;;;;;;;22.82;62.24;101171.61;1748222;80;20719;-55
2021/05/24 06:06:07;;;;;;;;;;;;;;;22.81;62.25;101174.13;1748807;80;21935;-54
2021/05/24 06:08:33;;;;;;;;;;;;;;;22.83;62.23;101175.43;1750115;80;20286;-53
2021/05/24 06:10:58;;;;;;;;;;;;;;;22.85;62.23;101182.87;1746388;80;21059;-53
2021/05/24 06:13:25;;;;;;;;;;;;;;;22.88;62.26;101182.78;1746694;80;20339;-55
2021/05/24 06:15:51;;;;;;;;;;;;;;;22.91;62.32;101184.93;1747482;80;20213;-56
2021/05/24 06:18:17;;;;;;;;;;;;;;;22.95;62.33;101188.12;1747381;80;20158;-56
2021/05/24 06:20:46;;;;;;;;;;;;;;;22.99;62.37;101182.73;1749290;80;20239;-56
2021/05/24 06:23:11;;;;;;;;;;;;;;;23.03;62.35;101185.92;1745253;80;20353;-55
2021/05/24 06:25:38;;;;;;;;;;;;;;;23.07;62.32;101181.92;1749131;80;20270;-55
2021/05/24 06:28:05;;;;;;;;;;;;;;;23.12;62.32;101199.81;1744723;80;20264;-55
2021/05/24 06:30:31;;;;;;;;;;;;;;;23.16;62.28;101199.41;1746931;80;20701;-56
2021/05/24 06:32:57;;;;;;;;;;;;;;;23.19;62.26;101200.95;1744010;80;20229;-56
2021/05/24 06:35:23;;;;;;;;;;;;;;;23.22;62.24;101207.80;1747471;80;21670;-55
2021/05/24 06:37:49;;;;;;;;;;;;;;;23.24;62.20;101205.53;1744350;80;20566;-55
2021/05/24 06:40:15;;;;;;;;;;;;;;;23.26;62.15;101214.33;1745538;80;20153;-55
2021/05/24 06:42:41;;;;;;;;;;;;;;;23.26;62.08;101212.13;1747449;80;20558;-54
2021/05/24 06:45:09;;;;;;;;;;;;;;;23.26;62.03;101219.06;1746812;80;20289;-55
2021/05/24 06:47:36;;;;;;;;;;;;;;;23.26;61.99;101212.95;1744012;80;21136;-56
2021/05/24 06:50:04;;;;;;;;;;;;;;;23.24;61.93;101209.69;1742613;80;20145;-54
2021/05/24 06:52:30;;;;;;;;;;;;;;;23.23;61.88;101205.28;1747082;80;20495;-56
2021/05/24 06:54:56;;;;;;;;;;;;;;;23.21;61.86;101203.41;1745995;80;20573;-55
2021/05/24 06:57:22;;;;;;;;;;;;;;;23.19;61.84;101213.45;1760581;79;20246;-56
2021/05/24 06:59:48;;;;;;;;;;;;;;;23.18;61.82;101216.53;1775587;79;21148;-56
2021/05/24 07:02:16;;;;;;;;;;;;;;;23.16;61.82;101220.22;1773546;79;20219;-56
2021/05/24 07:04:43;;;;;;;;;;;;;;;23.14;61.81;101221.92;1776452;79;20243;-56
2021/05/24 07:07:09;;;;;;;;;;;;;;;23.11;61.80;101225.36;1774112;79;20565;-56
2021/05/24 07:09:35;;;;;;;;;;;;;;;23.10;61.79;101232.61;1774082;79;20797;-56
2021/05/24 07:12:00;;;;;;;;;;;;;;;23.07;61.77;101236.05;1773774;79;20678;-56
2021/05/24 07:14:27;;;;;;;;;;;;;;;23.05;61.78;101232.76;1772867;79;20482;-56
2021/05/24 07:16:54;;;;;;;;;;;;;;;23.04;61.77;101252.75;1774810;79;20246;-56
2021/05/24 07:19:20;;;;;;;;;;;;;;;23.01;61.76;101264.51;1774614;79;20184;-57
2021/05/24 07:21:46;;;;;;;;;;;;;;;23.00;61.76;101260.09;1773254;79;20540;-56
2021/05/24 07:24:12;;;;;;;;;;;;;;;22.99;61.77;101261.82;1771881;80;21036;-56
2021/05/24 07:26:38;;;;;;;;;;;;;;;22.96;61.78;101259.10;1769383;79;20314;-56
2021/05/24 07:29:04;;;;;;;;;;;;;;;22.96;61.78;101265.22;1771955;79;20528;-55
2021/05/24 07:31:30;;;;;;;;;;;;;;;22.94;61.77;101265.56;1771094;80;20723;-56
2021/05/24 07:33:56;;;;;;;;;;;;;;;22.92;61.77;101273.38;1773500;79;20240;-56
2021/05/24 07:36:22;;;;;;;;;;;;;;;22.91;61.76;101269.56;1774115;79;21104;-56
2021/05/24 07:38:48;;;;;;;;;;;;;;;22.90;61.74;101265.14;1772877;79;20261;-56
2021/05/24 07:41:15;;;;;;;;;;;;;;;22.89;61.77;101272.64;1774062;79;20240;-56
2021/05/24 07:43:42;;;;;;;;;;;;;;;22.88;61.75;101275.73;1773071;79;20239;-56
2021/05/24 07:46:08;;;;;;;;;;;;;;;22.87;61.76;101269.95;1770861;79;20264;-55
2021/05/24 07:48:35;;;;;;;;;;;;;;;22.87;61.76;101281.05;1764291;80;21270;-55
2021/05/24 07:51:00;;;;;;;;;;;;;;;22.85;61.74;101275.81;1723104;81;20161;-56
2021/05/24 07:53:27;;;;;;;;;;;;;;;22.85;61.74;101273.61;1766950;80;20264;-56
2021/05/24 07:55:53;;;;;;;;;;;;;;;22.84;61.75;101265.03;1764682;80;20212;-56
2021/05/24 07:58:20;;;;;;;;;;;;;;;22.83;61.74;101271.14;1716420;82;20234;-55
2021/05/24 08:00:46;;;;;;;;;;;;;;;22.83;61.75;101275.90;1721660;82;21038;-56
2021/05/24 08:03:12;;;;;;;;;;;;;;;22.83;61.74;101276.69;1716815;82;20888;-56
2021/05/24 08:05:38;;;;;;;;;;;;;;;22.82;61.76;101272.30;1773411;79;20514;-55
2021/05/24 08:08:05;;;;;;;;;;;;;;;22.82;61.74;101278.42;1771590;79;20498;-55
2021/05/24 08:10:31;;;;;;;;;;;;;;;22.85;61.71;101276.38;1772452;79;20553;-55
2021/05/24 08:12:57;;;;;;;;;;;;;;;22.87;61.72;101277.71;1773448;79;21054;-56
2021/05/24 08:15:36;;;;;;;;;;;;;;;22.89;61.75;101275.98;1774334;79;20742;-55
2021/05/24 08:18:03;;;;;;;;;;;;;;;22.92;61.78;101279.49;1773274;79;20208;-54
2021/05/24 08:20:29;;;;;;;;;;;;;;;22.96;61.79;101280.48;1773262;79;20572;-56
2021/05/24 08:22:55;;;;;;;;;;;;;;;23.00;61.81;101278.13;1773041;79;20221;-56
2021/05/24 08:25:21;;;;;;;;;;;;;;;23.05;61.81;101280.77;1773798;79;21099;-56
2021/05/24 08:27:47;;;;;;;;;;;;;;;23.10;61.79;101281.18;1771268;79;20199;-55
2021/05/24 08:30:14;;;;;;;;;;;;;;;23.15;61.80;101283.81;1773289;79;20166;-55
2021/05/24 08:32:40;;;;;;;;;;;;;;;23.18;61.77;101279.81;1771219;79;20250;-55
2021/05/24 08:35:07;;;;;;;;;;;;;;;23.24;61.72;101284.65;1778523;79;20268;-56
2021/05/24 08:37:33;;;;;;;;;;;;;;;23.28;61.67;101284.25;1774773;79;21125;-56
2021/05/24 08:39:59;;;;;;;;;;;;;;;23.29;61.62;101283.11;1775325;79;20612;-56
2021/05/24 08:42:30;;;;;;;;;;;;;;;23.29;61.54;101274.78;1774946;79;20188;-56
2021/05/24 08:44:55;;;;;;;;;;;;;;;23.30;61.47;101281.95;1774551;79;20232;-55
2021/05/24 08:47:23;;;;;;;;;;;;;;;23.30;61.40;101272.23;1778209;79;20223;-55
2021/05/24 08:49:50;;;;;;;;;;;;;;;23.28;61.35;101274.53;1769826;79;22254;-56
2021/05/24 08:52:16;;;;;;;;;;;;;;;23.27;61.30;101266.52;1773234;79;20227;-56
2021/05/24 08:54:42;;;;;;;;;;;;;;;23.26;61.24;101267.64;1769315;79;20244;-56
2021/05/24 08:57:08;;;;;;;;;;;;;;;23.22;61.21;101272.47;1773243;79;20299;-55
2021/05/24 08:59:34;;;;;;;;;;;;;;;23.19;61.21;101263.41;1774901;79;37028;-56
2021/05/24 09:02:00;;;;;;;;;;;;;;;23.18;61.18;101264.55;1773321;79;21229;-56
2021/05/24 09:04:42;;;;;;;;;;;;;;;23.16;61.17;101264.63;1773473;79;20251;-58
2021/05/24 09:07:09;;;;;;;;;;;;;;;23.14;61.16;101266.34;1773863;79;20344;-56
2021/05/24 09:09:35;;;;;;;;;;;;;;;23.12;61.15;101263.65;1778301;79;20250;-55
2021/05/24 09:12:05;;;;;;;;;;;;;;;23.10;61.15;101268.69;1777839;79;20536;-56
2021/05/24 09:14:31;;;;;;;;;;;;;;;23.08;61.12;101270.42;1774682;79;21110;-56
2021/05/24 09:17:01;;;;;;;;;;;;;;;23.06;61.15;101264.36;1773895;79;20288;-57
2021/05/24 09:19:28;;;;;;;;;;;;;;;23.05;61.15;101271.61;1773353;79;20274;-56
2021/05/24 09:21:59;;;;;;;;;;;;;;;23.04;61.14;101270.00;1772793;79;20767;-55
2021/05/24 09:24:31;;;;;;;;;;;;;;;23.02;61.16;101262.55;1772964;79;20287;-54
2021/05/24 09:26:58;;;;;;;;;;;;;;;23.01;61.14;101263.69;1774236;79;21028;-55
2021/05/24 09:29:25;;;;;;;;;;;;;;;23.01;61.17;101264.51;1763807;80;20524;-56
2021/05/24 09:32:18;;;;;;;;;;;;;;;23.01;61.19;101260.91;1769594;80;20238;-56
2021/05/24 09:34:45;;;;;;;;;;;;;;;23.00;61.18;101256.53;1768934;79;20236;-56
2021/05/24 09:37:11;;;;;;;;;;;;;;;22.99;61.18;101256.27;1770428;79;20756;-54
2021/05/24 09:39:37;;;;;;;;;;;;;;;22.98;61.17;101245.73;1769247;79;21640;-53
2021/05/24 09:42:11;;;;;;;;;;;;;;;22.98;61.17;101240.19;1769154;79;20192;-55
2021/05/24 09:44:46;;;;;;;;;;;;;;;22.99;61.15;101241.02;1768172;79;20320;-55
2021/05/24 09:47:12;;;;;;;;;;;;;;;22.97;61.17;101245.48;1776082;79;20536;-55
2021/05/24 09:49:38;;;;;;;;;;;;;;;22.98;61.17;101239.37;1774275;79;20373;-55
2021/05/24 09:52:05;;;;;;;;;;;;;;;22.98;61.17;101237.98;1769630;79;21745;-55
2021/05/24 09:54:32;;;;;;;;;;;;;;;22.99;61.15;101235.45;1776911;79;20149;-55
2021/05/24 09:57:03;;;;;;;;;;;;;;;22.98;61.15;101237.41;1772161;79;20260;-55
2021/05/24 09:59:27;;;;;;;;;;;;;;;22.99;61.14;101245.99;1734816;81;20697;-54
2021/05/24 10:01:57;;;;;;;;;;;;;;;23.00;61.14;101250.98;1740398;81;20237;-55
2021/05/24 10:04:24;;;;;;;;;;;;;;;23.01;61.14;101247.86;1738243;81;21164;-55
2021/05/24 10:06:50;;;;;;;;;;;;;;;23.02;61.14;101241.17;1739632;81;20483;-56
2021/05/24 10:09:17;;;;;;;;;;;;;;;23.03;61.10;101243.38;1739496;81;20149;-56
2021/05/24 10:11:44;;;;;;;;;;;;;;;23.05;61.10;101241.09;1739693;81;20232;-55
2021/05/24 10:14:17;;;;;;;;;;;;;;;23.06;61.09;101246.33;1736448;81;20230;-55
2021/05/24 10:16:48;;;;;;;;;;;;;;;23.09;61.06;101247.63;1737883;81;21038;-55
2021/05/24 10:19:17;;;;;;;;;;;;;;;23.12;61.06;101251.98;1740649;81;20585;-55
2021/05/24 10:21:42;;;;;;;;;;;;;;;23.16;60.98;101247.98;1739626;81;20601;-55
2021/05/24 10:24:09;;;;;;;;;;;;;;;23.19;60.96;101251.48;1744700;81;20706;-55
2021/05/24 10:26:35;;;;;;;;;;;;;;;23.26;60.93;101242.09;1734225;82;20235;-56
2021/05/24 10:29:02;;;;;;;;;;;;;;;23.30;60.96;101243.08;1730054;82;21168;-55
2021/05/24 10:31:29;;;;;;;;;;;;;;;23.37;60.96;101242.61;1730622;82;20568;-54
2021/05/24 10:33:55;;;;;;;;;;;;;;;23.42;60.97;101246.62;1743863;81;20265;-56
2021/05/24 10:36:31;;;;;;;;;;;;;;;23.47;60.95;101250.06;1734224;81;20238;-54
2021/05/24 10:39:12;;;;;;;;;;;;;;;23.54;60.95;101244.86;1739414;81;20210;-55
2021/05/24 10:41:51;;;;;;;;;;;;;;;23.60;60.90;101235.20;1731016;81;21735;-55
2021/05/24 10:44:21;;;;;;;;;;;;;;;23.68;60.86;101239.92;1739774;81;20498;-56
2021/05/24 10:46:48;;;;;;;;;;;;;;;23.75;60.79;101245.57;1738960;81;20716;-55
2021/05/24 10:49:19;;;;;;;;;;;;;;;23.77;60.72;101240.48;1748146;81;20265;-55
2021/05/24 10:51:50;;;;;;;;;;;;;;;23.81;60.64;101238.69;1743118;81;20205;-56
2021/05/24 10:54:24;;;;;;;;;;;;;;;23.83;60.59;101234.45;1746169;81;21824;-55
2021/05/24 10:57:04;;;;;;;;;;;;;;;23.87;60.50;101238.20;1741593;81;20349;-56
2021/05/24 10:59:44;;;;;;;;;;;;;;;23.87;60.37;101231.82;1757286;80;20217;-56
2021/05/24 11:02:31;;;;;;;;;;;;;;;23.88;60.31;101239.02;1768925;80;20547;-54
2021/05/24 11:05:06;;;;;;;;;;;;;;;23.88;60.23;101240.41;1760636;80;20593;-56
2021/05/24 11:07:36;;;;;;;;;;;;;;;23.87;60.16;101236.81;1761472;81;21205;-56
2021/05/24 11:10:18;;;;;;;;;;;;;;;23.89;60.11;101232.32;1727780;82;20270;-56
2021/05/24 11:13:04;;;;;;;;;;;;;;;23.87;60.06;101234.03;1742544;80;20528;-56
2021/05/24 11:15:32;;;;;;;;;;;;;;;23.86;60.02;101233.78;1759923;80;20560;-54
2021/05/24 11:18:06;;;;;;;;;;;;;;;23.84;59.99;101228.32;1731592;82;20506;-56
2021/05/24 11:20:31;;;;;;;;;;;;;;;23.83;59.97;101230.28;1724875;82;21073;-56
2021/05/24 11:25:59;;;;;;;;;;;;;;;23.81;59.92;101232.55;1771004;80;20187;-56
2021/05/24 11:28:40;;;;;;;;;;;;;;;23.78;59.90;101232.41;1761531;80;20989;-55
2021/05/24 11:31:17;;;;;;;;;;;;;;;23.76;59.91;101224.42;1742187;80;20226;-56
2021/05/24 11:33:53;;;;;;;;;;;;;;;23.77;59.91;101234.93;1750520;80;23189;-56
2021/05/24 11:36:22;;;;;;;;;;;;;;;23.77;59.90;101227.41;1763304;80;20274;-56
2021/05/24 11:39:11;;;;;;;;;;;;;;;23.76;59.89;101232.75;1764911;80;20217;-56
2021/05/24 11:42:04;;;;;;;;;;;;;;;23.75;59.89;101228.91;1767516;80;20568;-55
2021/05/24 11:44:41;;;;;;;;;;;;;;;23.73;59.87;101237.55;1767277;80;20221;-57
2021/05/24 11:47:11;;;;;;;;;;;;;;;23.70;59.88;101240.17;1764806;80;21005;-56
2021/05/24 11:49:41;;;;;;;;;;;;;;;23.68;59.88;101226.03;1765616;80;20322;-56
2021/05/24 11:52:13;;;;;;;;;;;;;;;23.68;59.90;101223.83;1767478;80;20155;-55
2021/05/24 11:54:39;;;;;;;;;;;;;;;23.70;59.92;101213.78;1760116;80;21872;-56
2021/05/24 11:57:07;;;;;;;;;;;;;;;23.70;59.90;101214.61;1762963;80;20152;-54
2021/05/24 11:59:33;;;;;;;;;;;;;;;23.71;59.91;101212.08;1735599;79;21799;-56
2021/05/24 12:02:00;;;;;;;;;;;;;;;23.71;59.88;101221.80;1725430;82;20278;-57
2021/05/24 12:04:28;;;;;;;;;;;;;;;23.71;59.88;101209.87;1719422;82;20209;-56
2021/05/24 12:07:02;;;;;;;;;;;;;;;23.71;59.89;101213.47;1685526;83;20547;-56
2021/05/24 12:09:35;;;;;;;;;;;;;;;23.73;59.88;101214.51;1757404;80;20255;-56
2021/05/24 12:12:01;;;;;;;;;;;;;;;23.74;59.89;101217.54;1726073;82;21156;-56
2021/05/24 12:14:27;;;;;;;;;;;;;;;23.73;59.84;101222.84;1727300;82;20530;-56
2021/05/24 12:16:54;;;;;;;;;;;;;;;23.75;59.85;101230.29;1729711;82;20829;-56
2021/05/24 12:19:21;;;;;;;;;;;;;;;23.77;59.85;101227.98;1718265;82;20431;-56
2021/05/24 12:21:47;;;;;;;;;;;;;;;23.75;59.83;101220.00;1724378;82;20261;-56
2021/05/24 12:24:13;;;;;;;;;;;;;;;23.76;59.84;101225.81;1722520;82;21091;-56
2021/05/24 12:26:46;;;;;;;;;;;;;;;23.77;59.81;101226.02;1748247;80;20481;-56
2021/05/24 12:29:12;;;;;;;;;;;;;;;23.77;59.79;101230.19;1727783;81;20547;-57
2021/05/24 12:31:46;;;;;;;;;;;;;;;23.77;59.80;101227.41;1731574;82;20708;-56
2021/05/24 12:34:12;;;;;;;;;;;;;;;23.78;59.79;101231.02;1732188;81;20215;-56
2021/05/24 12:36:53;;;;;;;;;;;;;;;23.79;59.81;101220.16;1731959;81;21065;-56
2021/05/24 12:39:12;;;;;;;;;;;;;;;23.81;59.79;101220.63;1729592;81;20239;-56